This is the latest recevied weather packets stored in our database for station/object N3EYQ. If no packets are shown the sender has not sent any weather packets the latest 1 day(s).
| Time | Temp. | Humidity | Pressure | Rain* | Wind** | Luminosity | Snow |
|---|---|---|---|---|---|---|---|
| 1778049662 | 21.11° C | 51% | 1008.3 hPa | 0 mm | - | - | - |
| 1778049061 | 21.11° C | 51% | 1008.3 hPa | 0 mm | - | - | - |
| 1778048461 | 21.11° C | 50% | 1008.6 hPa | 0 mm | - | - | - |
| 1778047260 | 21.11° C | 49% | 1008.6 hPa | 0 mm | - | - | - |
| 1778046660 | 21.11° C | 48% | 1008.6 hPa | 0 mm | - | - | - |
| 1778044860 | 21.67° C | 47% | 1008.6 hPa | 0 mm | - | - | - |
| 1778044260 | 21.11° C | 48% | 1008.6 hPa | 0 mm | - | - | - |
| 1778043061 | 20.56° C | 49% | 1008.6 hPa | 0 mm | - | - | - |
| 1778042459 | 21.11° C | 48% | 1008.6 hPa | 0 mm | - | - | - |
| 1778041859 | 21.67° C | 46% | 1008.6 hPa | 0 mm | - | - | - |
| 1778041259 | 22.22° C | 45% | 1008.6 hPa | 0 mm | - | - | - |
| 1778040659 | 22.22° C | 44% | 1008.3 hPa | 0 mm | - | - | - |
| 1778040059 | 22.22° C | 44% | 1008.6 hPa | 0 mm | - | - | - |
| 1778039458 | 22.22° C | 44% | 1008.3 hPa | 0 mm | - | - | - |
| 1778038858 | 22.22° C | 44% | 1008.3 hPa | 0 mm | - | - | - |
| 1778038259 | 22.22° C | 44% | 1008.3 hPa | 0 mm | - | - | - |
| 1778037658 | 21.67° C | 47% | 1008.3 hPa | 0 mm | - | - | - |
| 1778037058 | 20° C | 49% | 1008.3 hPa | 0 mm | - | - | - |
| 1778036458 | 20° C | 50% | 1008.3 hPa | 0 mm | - | - | - |
| 1778035859 | 20.56° C | 49% | 1008.3 hPa | 0 mm | - | - | - |
| 1778035257 | 20.56° C | 48% | 1008.3 hPa | 0 mm | - | - | - |
| 1778034658 | 21.11° C | 47% | 1008.3 hPa | 0 mm | - | - | - |
| 1778034057 | 21.11° C | 47% | 1008.3 hPa | 0 mm | - | - | - |
| 1778033458 | 21.67° C | 47% | 1008.3 hPa | 0 mm | - | - | - |
| 1778032857 | 22.22° C | 45% | 1008.3 hPa | 0 mm | - | - | - |
* Rain latest hour (hover to see other rain measurements)
** Current wind speed in m/s (hover to see current wind gust speed)